sensor_id;sensor_type;location;lat;lon;timestamp;temperature;humidity
35523;DHT22;61478;50.820;4.330;2023-08-08T00:02:10;15.20;99.90
35523;DHT22;61478;50.820;4.330;2023-08-08T00:04:35;15.20;99.90
35523;DHT22;61478;50.820;4.330;2023-08-08T00:07:01;15.20;99.90
35523;DHT22;61478;50.820;4.330;2023-08-08T00:09:27;15.20;99.90
35523;DHT22;61478;50.820;4.330;2023-08-08T00:11:53;15.10;99.90
35523;DHT22;61478;50.820;4.330;2023-08-08T00:14:19;15.10;99.90
35523;DHT22;61478;50.820;4.330;2023-08-08T00:16:45;15.00;99.90
35523;DHT22;61478;50.820;4.330;2023-08-08T00:19:11;15.00;99.90
35523;DHT22;61478;50.820;4.330;2023-08-08T00:21:36;15.00;99.90
35523;DHT22;61478;50.820;4.330;2023-08-08T00:24:03;15.00;99.90
35523;DHT22;61478;50.820;4.330;2023-08-08T00:26:29;14.90;99.90
35523;DHT22;61478;50.820;4.330;2023-08-08T00:28:54;14.90;99.90
35523;DHT22;61478;50.820;4.330;2023-08-08T00:31:20;14.90;99.90
35523;DHT22;61478;50.820;4.330;2023-08-08T00:33:46;15.00;99.90
35523;DHT22;61478;50.820;4.330;2023-08-08T00:36:12;14.90;99.90
35523;DHT22;61478;50.820;4.330;2023-08-08T00:38:38;14.90;99.90
35523;DHT22;61478;50.820;4.330;2023-08-08T00:41:04;14.90;99.90
35523;DHT22;61478;50.820;4.330;2023-08-08T00:43:30;15.00;99.90
35523;DHT22;61478;50.820;4.330;2023-08-08T00:45:57;14.90;99.90
35523;DHT22;61478;50.820;4.330;2023-08-08T00:48:23;14.90;99.90
35523;DHT22;61478;50.820;4.330;2023-08-08T00:50:50;14.80;99.90
35523;DHT22;61478;50.820;4.330;2023-08-08T00:53:18;14.70;99.90
35523;DHT22;61478;50.820;4.330;2023-08-08T00:55:45;14.70;99.90
35523;DHT22;61478;50.820;4.330;2023-08-08T00:58:12;14.60;99.90
35523;DHT22;61478;50.820;4.330;2023-08-08T01:00:39;14.60;99.90
35523;DHT22;61478;50.820;4.330;2023-08-08T01:03:05;14.60;99.90
35523;DHT22;61478;50.820;4.330;2023-08-08T01:05:38;14.60;99.90
35523;DHT22;61478;50.820;4.330;2023-08-08T01:08:07;14.60;99.90
35523;DHT22;61478;50.820;4.330;2023-08-08T01:10:38;14.60;99.90
35523;DHT22;61478;50.820;4.330;2023-08-08T01:13:08;14.60;99.90
35523;DHT22;61478;50.820;4.330;2023-08-08T01:15:35;14.60;99.90
35523;DHT22;61478;50.820;4.330;2023-08-08T01:18:07;14.60;99.90
35523;DHT22;61478;50.820;4.330;2023-08-08T01:20:34;14.60;99.90
35523;DHT22;61478;50.820;4.330;2023-08-08T01:23:26;14.50;99.90
35523;DHT22;61478;50.820;4.330;2023-08-08T01:25:56;14.50;99.90
35523;DHT22;61478;50.820;4.330;2023-08-08T01:28:23;14.50;99.90
35523;DHT22;61478;50.820;4.330;2023-08-08T01:30:50;14.50;99.90
35523;DHT22;61478;50.820;4.330;2023-08-08T01:33:16;14.50;99.90
35523;DHT22;61478;50.820;4.330;2023-08-08T01:35:52;14.60;99.90
35523;DHT22;61478;50.820;4.330;2023-08-08T01:38:33;14.50;99.90
35523;DHT22;61478;50.820;4.330;2023-08-08T01:40:59;14.50;99.90
35523;DHT22;61478;50.820;4.330;2023-08-08T01:43:26;14.40;99.90
35523;DHT22;61478;50.820;4.330;2023-08-08T01:45:53;14.50;99.90
35523;DHT22;61478;50.820;4.330;2023-08-08T01:48:19;14.50;99.90
35523;DHT22;61478;50.820;4.330;2023-08-08T01:50:45;14.50;99.90
35523;DHT22;61478;50.820;4.330;2023-08-08T01:53:11;14.50;99.90
35523;DHT22;61478;50.820;4.330;2023-08-08T01:55:38;14.50;99.90
35523;DHT22;61478;50.820;4.330;2023-08-08T01:58:04;14.50;99.90
35523;DHT22;61478;50.820;4.330;2023-08-08T02:00:30;14.40;99.90
35523;DHT22;61478;50.820;4.330;2023-08-08T02:02:55;14.50;99.90
35523;DHT22;61478;50.820;4.330;2023-08-08T02:05:21;14.50;99.90
35523;DHT22;61478;50.820;4.330;2023-08-08T02:07:47;14.50;99.90
35523;DHT22;61478;50.820;4.330;2023-08-08T02:10:13;14.50;99.90
35523;DHT22;61478;50.820;4.330;2023-08-08T02:12:39;14.60;99.90
35523;DHT22;61478;50.820;4.330;2023-08-08T02:15:05;14.40;99.90
35523;DHT22;61478;50.820;4.330;2023-08-08T02:17:31;14.40;99.90
35523;DHT22;61478;50.820;4.330;2023-08-08T02:19:57;14.40;99.90
35523;DHT22;61478;50.820;4.330;2023-08-08T02:22:23;14.40;99.90
35523;DHT22;61478;50.820;4.330;2023-08-08T02:24:49;14.40;99.90
35523;DHT22;61478;50.820;4.330;2023-08-08T02:27:15;14.50;99.90
35523;DHT22;61478;50.820;4.330;2023-08-08T02:29:40;14.40;99.90
35523;DHT22;61478;50.820;4.330;2023-08-08T02:32:06;14.40;99.90
35523;DHT22;61478;50.820;4.330;2023-08-08T02:34:32;14.30;99.90
35523;DHT22;61478;50.820;4.330;2023-08-08T02:36:58;14.30;99.90
35523;DHT22;61478;50.820;4.330;2023-08-08T02:39:24;14.30;99.90
35523;DHT22;61478;50.820;4.330;2023-08-08T02:41:50;14.30;99.90
35523;DHT22;61478;50.820;4.330;2023-08-08T02:44:16;14.20;99.90
35523;DHT22;61478;50.820;4.330;2023-08-08T02:46:42;14.30;99.90
35523;DHT22;61478;50.820;4.330;2023-08-08T02:49:08;14.30;99.90
35523;DHT22;61478;50.820;4.330;2023-08-08T02:51:37;14.30;99.90
35523;DHT22;61478;50.820;4.330;2023-08-08T02:54:03;14.30;99.90
35523;DHT22;61478;50.820;4.330;2023-08-08T02:56:29;14.20;99.90
35523;DHT22;61478;50.820;4.330;2023-08-08T02:58:55;14.20;99.90
35523;DHT22;61478;50.820;4.330;2023-08-08T03:01:21;14.20;99.90
35523;DHT22;61478;50.820;4.330;2023-08-08T03:03:47;14.20;99.90
35523;DHT22;61478;50.820;4.330;2023-08-08T03:06:13;14.10;99.90
35523;DHT22;61478;50.820;4.330;2023-08-08T03:08:39;14.10;99.90
35523;DHT22;61478;50.820;4.330;2023-08-08T03:11:04;14.20;99.90
35523;DHT22;61478;50.820;4.330;2023-08-08T03:13:30;14.10;99.90
35523;DHT22;61478;50.820;4.330;2023-08-08T03:15:56;14.10;99.90
35523;DHT22;61478;50.820;4.330;2023-08-08T03:18:22;14.10;99.90
35523;DHT22;61478;50.820;4.330;2023-08-08T03:20:48;14.10;99.90
35523;DHT22;61478;50.820;4.330;2023-08-08T03:23:14;14.10;99.90
35523;DHT22;61478;50.820;4.330;2023-08-08T03:25:40;14.10;99.90
35523;DHT22;61478;50.820;4.330;2023-08-08T03:28:06;14.00;99.90
35523;DHT22;61478;50.820;4.330;2023-08-08T03:30:32;14.00;99.90
35523;DHT22;61478;50.820;4.330;2023-08-08T03:32:57;14.00;99.90
35523;DHT22;61478;50.820;4.330;2023-08-08T03:35:23;14.10;99.90
35523;DHT22;61478;50.820;4.330;2023-08-08T03:37:49;14.10;99.90
35523;DHT22;61478;50.820;4.330;2023-08-08T03:40:15;14.10;99.90
35523;DHT22;61478;50.820;4.330;2023-08-08T03:42:41;14.00;99.90
35523;DHT22;61478;50.820;4.330;2023-08-08T03:45:07;14.00;99.90
35523;DHT22;61478;50.820;4.330;2023-08-08T03:47:33;14.00;99.90
35523;DHT22;61478;50.820;4.330;2023-08-08T03:49:59;14.00;99.90
35523;DHT22;61478;50.820;4.330;2023-08-08T03:52:25;13.90;99.90
35523;DHT22;61478;50.820;4.330;2023-08-08T03:54:52;14.00;99.90
35523;DHT22;61478;50.820;4.330;2023-08-08T03:57:18;13.90;99.90
35523;DHT22;61478;50.820;4.330;2023-08-08T03:59:44;13.80;99.90
35523;DHT22;61478;50.820;4.330;2023-08-08T04:02:10;13.90;99.90
35523;DHT22;61478;50.820;4.330;2023-08-08T04:04:36;13.90;99.90
35523;DHT22;61478;50.820;4.330;2023-08-08T04:07:02;13.90;99.90
35523;DHT22;61478;50.820;4.330;2023-08-08T04:09:27;13.90;99.90
35523;DHT22;61478;50.820;4.330;2023-08-08T04:11:53;13.80;99.90
35523;DHT22;61478;50.820;4.330;2023-08-08T04:14:19;13.80;99.90
35523;DHT22;61478;50.820;4.330;2023-08-08T04:16:45;13.80;99.90
35523;DHT22;61478;50.820;4.330;2023-08-08T04:19:10;13.80;99.90
35523;DHT22;61478;50.820;4.330;2023-08-08T04:21:36;13.90;99.90
35523;DHT22;61478;50.820;4.330;2023-08-08T04:24:02;13.90;99.90
35523;DHT22;61478;50.820;4.330;2023-08-08T04:26:28;13.80;99.90
35523;DHT22;61478;50.820;4.330;2023-08-08T04:28:54;13.90;99.90
35523;DHT22;61478;50.820;4.330;2023-08-08T04:31:21;13.90;99.90
35523;DHT22;61478;50.820;4.330;2023-08-08T04:33:50;13.90;99.90
35523;DHT22;61478;50.820;4.330;2023-08-08T04:36:15;13.80;99.90
35523;DHT22;61478;50.820;4.330;2023-08-08T04:38:42;13.90;99.90
35523;DHT22;61478;50.820;4.330;2023-08-08T04:41:08;13.90;99.90
35523;DHT22;61478;50.820;4.330;2023-08-08T04:43:33;13.90;99.90
35523;DHT22;61478;50.820;4.330;2023-08-08T04:45:59;13.90;99.90
35523;DHT22;61478;50.820;4.330;2023-08-08T04:48:25;13.90;99.90
35523;DHT22;61478;50.820;4.330;2023-08-08T04:50:50;13.80;99.90
35523;DHT22;61478;50.820;4.330;2023-08-08T04:53:16;13.90;99.90
35523;DHT22;61478;50.820;4.330;2023-08-08T04:55:42;13.90;99.90
35523;DHT22;61478;50.820;4.330;2023-08-08T04:58:08;13.80;99.90
35523;DHT22;61478;50.820;4.330;2023-08-08T05:00:33;13.80;99.90
35523;DHT22;61478;50.820;4.330;2023-08-08T05:02:59;13.70;99.90
35523;DHT22;61478;50.820;4.330;2023-08-08T05:05:25;13.80;99.90
35523;DHT22;61478;50.820;4.330;2023-08-08T05:07:51;13.90;99.90
35523;DHT22;61478;50.820;4.330;2023-08-08T05:10:17;13.80;99.90
35523;DHT22;61478;50.820;4.330;2023-08-08T05:12:43;13.80;99.90
35523;DHT22;61478;50.820;4.330;2023-08-08T05:15:09;13.80;99.90
35523;DHT22;61478;50.820;4.330;2023-08-08T05:17:35;13.80;99.90
35523;DHT22;61478;50.820;4.330;2023-08-08T05:20:00;13.80;99.90
35523;DHT22;61478;50.820;4.330;2023-08-08T05:22:26;13.70;99.90
35523;DHT22;61478;50.820;4.330;2023-08-08T05:24:52;13.80;99.90
35523;DHT22;61478;50.820;4.330;2023-08-08T05:27:17;13.80;99.90
35523;DHT22;61478;50.820;4.330;2023-08-08T05:29:43;13.80;99.90
35523;DHT22;61478;50.820;4.330;2023-08-08T05:32:09;13.80;99.90
35523;DHT22;61478;50.820;4.330;2023-08-08T05:34:35;13.90;99.90
35523;DHT22;61478;50.820;4.330;2023-08-08T05:37:01;13.90;99.90
35523;DHT22;61478;50.820;4.330;2023-08-08T05:39:27;13.90;99.90
35523;DHT22;61478;50.820;4.330;2023-08-08T05:41:53;14.10;99.90
35523;DHT22;61478;50.820;4.330;2023-08-08T05:44:18;14.10;99.90
35523;DHT22;61478;50.820;4.330;2023-08-08T05:46:44;14.20;99.90
35523;DHT22;61478;50.820;4.330;2023-08-08T05:49:10;14.20;99.90
35523;DHT22;61478;50.820;4.330;2023-08-08T05:51:36;14.20;99.90
35523;DHT22;61478;50.820;4.330;2023-08-08T05:54:02;14.20;99.90
35523;DHT22;61478;50.820;4.330;2023-08-08T05:56:35;14.20;99.90
35523;DHT22;61478;50.820;4.330;2023-08-08T05:59:01;14.20;99.90
35523;DHT22;61478;50.820;4.330;2023-08-08T06:01:27;14.10;99.90
35523;DHT22;61478;50.820;4.330;2023-08-08T06:03:53;14.20;99.90
35523;DHT22;61478;50.820;4.330;2023-08-08T06:06:18;14.20;99.90
35523;DHT22;61478;50.820;4.330;2023-08-08T06:08:44;14.30;99.90
35523;DHT22;61478;50.820;4.330;2023-08-08T06:11:10;14.30;99.90
35523;DHT22;61478;50.820;4.330;2023-08-08T06:13:36;14.30;99.90
35523;DHT22;61478;50.820;4.330;2023-08-08T06:16:02;14.40;99.90
35523;DHT22;61478;50.820;4.330;2023-08-08T06:18:32;14.40;99.90
35523;DHT22;61478;50.820;4.330;2023-08-08T06:20:58;14.50;99.90
35523;DHT22;61478;50.820;4.330;2023-08-08T06:23:24;14.60;99.90
35523;DHT22;61478;50.820;4.330;2023-08-08T06:25:50;14.70;99.90
35523;DHT22;61478;50.820;4.330;2023-08-08T06:28:16;14.80;99.90
35523;DHT22;61478;50.820;4.330;2023-08-08T06:30:42;14.90;99.90
35523;DHT22;61478;50.820;4.330;2023-08-08T06:33:08;15.00;99.90
35523;DHT22;61478;50.820;4.330;2023-08-08T06:35:34;15.00;99.90
35523;DHT22;61478;50.820;4.330;2023-08-08T06:38:00;15.10;99.90
35523;DHT22;61478;50.820;4.330;2023-08-08T06:40:25;15.10;99.90
35523;DHT22;61478;50.820;4.330;2023-08-08T06:42:52;15.20;99.90
35523;DHT22;61478;50.820;4.330;2023-08-08T06:45:19;15.30;99.90
35523;DHT22;61478;50.820;4.330;2023-08-08T06:47:45;15.30;99.90
35523;DHT22;61478;50.820;4.330;2023-08-08T06:50:11;15.50;99.90
35523;DHT22;61478;50.820;4.330;2023-08-08T06:52:37;15.50;99.90
35523;DHT22;61478;50.820;4.330;2023-08-08T06:55:03;15.60;99.90
35523;DHT22;61478;50.820;4.330;2023-08-08T06:57:32;15.60;99.90
35523;DHT22;61478;50.820;4.330;2023-08-08T06:59:58;15.70;99.90
35523;DHT22;61478;50.820;4.330;2023-08-08T07:02:24;15.80;99.90
35523;DHT22;61478;50.820;4.330;2023-08-08T07:04:50;15.90;99.90
35523;DHT22;61478;50.820;4.330;2023-08-08T07:07:17;15.90;99.90
35523;DHT22;61478;50.820;4.330;2023-08-08T07:09:43;15.90;99.90
35523;DHT22;61478;50.820;4.330;2023-08-08T07:12:09;16.00;99.90
35523;DHT22;61478;50.820;4.330;2023-08-08T07:14:35;16.00;99.90
35523;DHT22;61478;50.820;4.330;2023-08-08T07:17:00;16.00;99.90
35523;DHT22;61478;50.820;4.330;2023-08-08T07:19:29;16.10;99.90
35523;DHT22;61478;50.820;4.330;2023-08-08T07:21:54;16.00;99.90
35523;DHT22;61478;50.820;4.330;2023-08-08T07:24:20;16.10;99.90
35523;DHT22;61478;50.820;4.330;2023-08-08T07:26:46;16.00;99.90
35523;DHT22;61478;50.820;4.330;2023-08-08T07:29:12;16.00;99.90
35523;DHT22;61478;50.820;4.330;2023-08-08T07:31:38;15.90;99.90
35523;DHT22;61478;50.820;4.330;2023-08-08T07:34:04;16.00;99.90
35523;DHT22;61478;50.820;4.330;2023-08-08T07:36:29;16.00;99.90
35523;DHT22;61478;50.820;4.330;2023-08-08T07:38:55;16.10;99.90
35523;DHT22;61478;50.820;4.330;2023-08-08T07:41:26;16.10;99.90
35523;DHT22;61478;50.820;4.330;2023-08-08T07:43:52;16.10;99.90
35523;DHT22;61478;50.820;4.330;2023-08-08T07:46:18;16.20;99.90
35523;DHT22;61478;50.820;4.330;2023-08-08T07:48:44;16.30;99.90
35523;DHT22;61478;50.820;4.330;2023-08-08T07:51:10;16.30;99.90
35523;DHT22;61478;50.820;4.330;2023-08-08T07:53:36;16.50;99.90
35523;DHT22;61478;50.820;4.330;2023-08-08T07:56:02;16.50;99.90
35523;DHT22;61478;50.820;4.330;2023-08-08T07:58:27;16.60;99.90
35523;DHT22;61478;50.820;4.330;2023-08-08T08:00:53;16.60;99.90
35523;DHT22;61478;50.820;4.330;2023-08-08T08:03:20;16.70;99.90
35523;DHT22;61478;50.820;4.330;2023-08-08T08:05:46;16.80;99.90
35523;DHT22;61478;50.820;4.330;2023-08-08T08:08:12;16.80;99.90
35523;DHT22;61478;50.820;4.330;2023-08-08T08:10:38;16.80;99.90
35523;DHT22;61478;50.820;4.330;2023-08-08T08:13:04;16.90;99.90
35523;DHT22;61478;50.820;4.330;2023-08-08T08:15:30;16.90;99.90
35523;DHT22;61478;50.820;4.330;2023-08-08T08:17:56;16.80;99.90
35523;DHT22;61478;50.820;4.330;2023-08-08T08:20:22;16.80;99.90
35523;DHT22;61478;50.820;4.330;2023-08-08T08:22:47;16.80;99.90
35523;DHT22;61478;50.820;4.330;2023-08-08T08:25:14;16.80;99.90
35523;DHT22;61478;50.820;4.330;2023-08-08T08:27:40;16.80;99.90
35523;DHT22;61478;50.820;4.330;2023-08-08T08:30:07;16.90;99.90
35523;DHT22;61478;50.820;4.330;2023-08-08T08:32:35;16.90;99.90
35523;DHT22;61478;50.820;4.330;2023-08-08T08:35:04;17.00;99.90
35523;DHT22;61478;50.820;4.330;2023-08-08T08:37:32;17.10;99.90
35523;DHT22;61478;50.820;4.330;2023-08-08T08:39:58;17.20;99.90
35523;DHT22;61478;50.820;4.330;2023-08-08T08:42:26;17.30;99.90
35523;DHT22;61478;50.820;4.330;2023-08-08T08:44:57;17.30;99.90
35523;DHT22;61478;50.820;4.330;2023-08-08T08:47:24;17.30;99.90
35523;DHT22;61478;50.820;4.330;2023-08-08T08:49:52;17.40;99.90
35523;DHT22;61478;50.820;4.330;2023-08-08T08:52:18;17.50;99.90
35523;DHT22;61478;50.820;4.330;2023-08-08T08:54:44;17.50;99.90
35523;DHT22;61478;50.820;4.330;2023-08-08T08:57:10;17.60;99.90
35523;DHT22;61478;50.820;4.330;2023-08-08T08:59:35;17.60;99.90
35523;DHT22;61478;50.820;4.330;2023-08-08T09:02:02;17.70;99.90
35523;DHT22;61478;50.820;4.330;2023-08-08T09:04:28;17.80;99.90
35523;DHT22;61478;50.820;4.330;2023-08-08T09:06:55;18.00;99.90
35523;DHT22;61478;50.820;4.330;2023-08-08T09:09:21;18.00;99.90
35523;DHT22;61478;50.820;4.330;2023-08-08T09:11:52;18.10;99.90
35523;DHT22;61478;50.820;4.330;2023-08-08T09:14:23;18.20;99.90
35523;DHT22;61478;50.820;4.330;2023-08-08T09:16:50;18.20;99.90
35523;DHT22;61478;50.820;4.330;2023-08-08T09:19:20;18.30;99.90
35523;DHT22;61478;50.820;4.330;2023-08-08T09:21:47;18.50;99.90
35523;DHT22;61478;50.820;4.330;2023-08-08T09:24:17;18.50;99.90
35523;DHT22;61478;50.820;4.330;2023-08-08T09:26:44;18.80;99.90
35523;DHT22;61478;50.820;4.330;2023-08-08T09:29:14;18.90;99.90
35523;DHT22;61478;50.820;4.330;2023-08-08T09:31:40;19.10;99.90
35523;DHT22;61478;50.820;4.330;2023-08-08T09:34:06;19.10;99.90
35523;DHT22;61478;50.820;4.330;2023-08-08T09:36:33;19.20;99.90
35523;DHT22;61478;50.820;4.330;2023-08-08T09:39:00;19.40;99.90
35523;DHT22;61478;50.820;4.330;2023-08-08T09:41:27;19.40;99.90
35523;DHT22;61478;50.820;4.330;2023-08-08T09:43:53;19.60;99.90
35523;DHT22;61478;50.820;4.330;2023-08-08T09:46:20;19.90;99.90
35523;DHT22;61478;50.820;4.330;2023-08-08T09:48:47;20.00;99.90
35523;DHT22;61478;50.820;4.330;2023-08-08T09:51:13;20.00;99.90
35523;DHT22;61478;50.820;4.330;2023-08-08T09:53:40;19.90;99.90
35523;DHT22;61478;50.820;4.330;2023-08-08T09:56:07;19.50;99.90
35523;DHT22;61478;50.820;4.330;2023-08-08T09:58:34;19.40;99.90
35523;DHT22;61478;50.820;4.330;2023-08-08T10:01:00;19.30;99.90
35523;DHT22;61478;50.820;4.330;2023-08-08T10:03:26;19.30;99.90
35523;DHT22;61478;50.820;4.330;2023-08-08T10:05:53;19.40;99.90
35523;DHT22;61478;50.820;4.330;2023-08-08T10:08:19;19.40;99.90
35523;DHT22;61478;50.820;4.330;2023-08-08T10:10:47;19.70;99.90
35523;DHT22;61478;50.820;4.330;2023-08-08T10:13:26;19.90;99.90
35523;DHT22;61478;50.820;4.330;2023-08-08T10:15:53;19.70;99.90
35523;DHT22;61478;50.820;4.330;2023-08-08T10:18:23;19.50;99.90
35523;DHT22;61478;50.820;4.330;2023-08-08T10:20:50;19.30;99.90
35523;DHT22;61478;50.820;4.330;2023-08-08T10:23:17;19.10;99.90
35523;DHT22;61478;50.820;4.330;2023-08-08T10:25:48;18.90;99.90
35523;DHT22;61478;50.820;4.330;2023-08-08T10:28:15;18.80;99.90
35523;DHT22;61478;50.820;4.330;2023-08-08T10:30:56;18.70;99.90
35523;DHT22;61478;50.820;4.330;2023-08-08T10:33:27;18.70;99.90
35523;DHT22;61478;50.820;4.330;2023-08-08T10:35:57;18.70;99.90
35523;DHT22;61478;50.820;4.330;2023-08-08T10:38:38;18.70;99.90
35523;DHT22;61478;50.820;4.330;2023-08-08T10:41:05;18.60;99.90
35523;DHT22;61478;50.820;4.330;2023-08-08T10:43:33;18.50;99.90
35523;DHT22;61478;50.820;4.330;2023-08-08T10:46:03;18.40;99.90
35523;DHT22;61478;50.820;4.330;2023-08-08T10:48:30;18.50;99.90
35523;DHT22;61478;50.820;4.330;2023-08-08T10:50:58;18.60;99.90
35523;DHT22;61478;50.820;4.330;2023-08-08T10:53:29;18.70;99.90
35523;DHT22;61478;50.820;4.330;2023-08-08T10:56:02;18.60;99.90
35523;DHT22;61478;50.820;4.330;2023-08-08T10:58:46;18.70;99.90
35523;DHT22;61478;50.820;4.330;2023-08-08T11:01:12;18.70;99.90
35523;DHT22;61478;50.820;4.330;2023-08-08T11:03:41;18.80;99.90
35523;DHT22;61478;50.820;4.330;2023-08-08T11:06:09;18.90;99.90
35523;DHT22;61478;50.820;4.330;2023-08-08T11:08:36;19.20;99.90
35523;DHT22;61478;50.820;4.330;2023-08-08T11:11:05;19.40;99.90
35523;DHT22;61478;50.820;4.330;2023-08-08T11:13:32;19.60;99.90
35523;DHT22;61478;50.820;4.330;2023-08-08T11:15:59;19.70;99.90
35523;DHT22;61478;50.820;4.330;2023-08-08T11:18:27;19.70;99.90
35523;DHT22;61478;50.820;4.330;2023-08-08T11:20:53;19.90;99.90
35523;DHT22;61478;50.820;4.330;2023-08-08T11:23:19;19.70;99.90
35523;DHT22;61478;50.820;4.330;2023-08-08T11:25:47;19.60;99.90
35523;DHT22;61478;50.820;4.330;2023-08-08T11:28:13;19.50;99.90
35523;DHT22;61478;50.820;4.330;2023-08-08T11:30:43;19.50;99.90
35523;DHT22;61478;50.820;4.330;2023-08-08T11:33:09;19.40;99.90
35523;DHT22;61478;50.820;4.330;2023-08-08T11:35:37;19.40;99.90
35523;DHT22;61478;50.820;4.330;2023-08-08T11:38:09;19.40;99.90
35523;DHT22;61478;50.820;4.330;2023-08-08T11:40:35;19.40;99.90
35523;DHT22;61478;50.820;4.330;2023-08-08T11:43:01;19.50;99.90
35523;DHT22;61478;50.820;4.330;2023-08-08T11:45:27;19.50;99.90
35523;DHT22;61478;50.820;4.330;2023-08-08T11:47:55;19.40;99.90
35523;DHT22;61478;50.820;4.330;2023-08-08T11:50:22;19.40;99.90
35523;DHT22;61478;50.820;4.330;2023-08-08T11:52:50;19.40;99.90
35523;DHT22;61478;50.820;4.330;2023-08-08T11:55:17;19.50;99.90
35523;DHT22;61478;50.820;4.330;2023-08-08T11:57:48;19.70;99.90
35523;DHT22;61478;50.820;4.330;2023-08-08T12:00:14;19.70;99.90
35523;DHT22;61478;50.820;4.330;2023-08-08T12:02:42;19.70;99.90
35523;DHT22;61478;50.820;4.330;2023-08-08T12:05:09;19.60;99.90
35523;DHT22;61478;50.820;4.330;2023-08-08T12:07:37;19.60;99.90
35523;DHT22;61478;50.820;4.330;2023-08-08T12:10:04;19.50;99.90
35523;DHT22;61478;50.820;4.330;2023-08-08T12:12:32;19.50;99.90
35523;DHT22;61478;50.820;4.330;2023-08-08T12:15:07;19.50;99.90
35523;DHT22;61478;50.820;4.330;2023-08-08T12:17:35;19.50;99.90
35523;DHT22;61478;50.820;4.330;2023-08-08T12:20:03;19.60;99.90
35523;DHT22;61478;50.820;4.330;2023-08-08T12:22:31;19.90;99.90
35523;DHT22;61478;50.820;4.330;2023-08-08T12:24:56;20.10;99.90
35523;DHT22;61478;50.820;4.330;2023-08-08T12:27:22;20.00;99.90
35523;DHT22;61478;50.820;4.330;2023-08-08T12:29:48;20.30;99.90
35523;DHT22;61478;50.820;4.330;2023-08-08T12:32:14;20.30;99.90
35523;DHT22;61478;50.820;4.330;2023-08-08T12:34:39;20.30;99.90
35523;DHT22;61478;50.820;4.330;2023-08-08T12:37:05;20.10;99.90
35523;DHT22;61478;50.820;4.330;2023-08-08T12:39:31;20.00;99.90
35523;DHT22;61478;50.820;4.330;2023-08-08T12:41:56;19.90;99.90
35523;DHT22;61478;50.820;4.330;2023-08-08T12:44:22;20.00;99.90
35523;DHT22;61478;50.820;4.330;2023-08-08T12:46:48;19.80;99.90
35523;DHT22;61478;50.820;4.330;2023-08-08T12:49:17;20.00;99.90
35523;DHT22;61478;50.820;4.330;2023-08-08T12:51:43;20.20;99.90
35523;DHT22;61478;50.820;4.330;2023-08-08T12:54:19;20.20;99.90
35523;DHT22;61478;50.820;4.330;2023-08-08T12:56:45;20.40;99.90
35523;DHT22;61478;50.820;4.330;2023-08-08T12:59:11;20.50;99.90
35523;DHT22;61478;50.820;4.330;2023-08-08T13:01:36;20.40;99.90
35523;DHT22;61478;50.820;4.330;2023-08-08T13:04:02;20.40;99.90
35523;DHT22;61478;50.820;4.330;2023-08-08T13:06:29;20.40;99.90
35523;DHT22;61478;50.820;4.330;2023-08-08T13:08:55;20.40;99.90
35523;DHT22;61478;50.820;4.330;2023-08-08T13:11:21;20.40;99.90
35523;DHT22;61478;50.820;4.330;2023-08-08T13:13:47;20.40;99.90
35523;DHT22;61478;50.820;4.330;2023-08-08T13:16:13;20.40;99.90
35523;DHT22;61478;50.820;4.330;2023-08-08T13:18:39;20.40;99.90
35523;DHT22;61478;50.820;4.330;2023-08-08T13:21:06;20.30;99.90
35523;DHT22;61478;50.820;4.330;2023-08-08T13:23:32;20.20;99.90
35523;DHT22;61478;50.820;4.330;2023-08-08T13:25:58;20.10;99.90
35523;DHT22;61478;50.820;4.330;2023-08-08T13:28:24;20.10;99.90
35523;DHT22;61478;50.820;4.330;2023-08-08T13:30:49;20.00;99.90
35523;DHT22;61478;50.820;4.330;2023-08-08T13:33:15;19.90;99.90
35523;DHT22;61478;50.820;4.330;2023-08-08T13:35:41;20.00;99.90
35523;DHT22;61478;50.820;4.330;2023-08-08T13:38:07;20.10;99.90
35523;DHT22;61478;50.820;4.330;2023-08-08T13:40:43;20.10;99.90
35523;DHT22;61478;50.820;4.330;2023-08-08T13:43:09;20.10;99.90
35523;DHT22;61478;50.820;4.330;2023-08-08T13:45:35;20.10;99.90
35523;DHT22;61478;50.820;4.330;2023-08-08T13:48:01;20.20;99.90
35523;DHT22;61478;50.820;4.330;2023-08-08T13:50:26;20.40;99.90
35523;DHT22;61478;50.820;4.330;2023-08-08T13:52:54;20.50;99.90
35523;DHT22;61478;50.820;4.330;2023-08-08T13:55:20;20.40;99.90
35523;DHT22;61478;50.820;4.330;2023-08-08T13:57:46;20.40;99.90
35523;DHT22;61478;50.820;4.330;2023-08-08T14:00:15;20.30;99.90
35523;DHT22;61478;50.820;4.330;2023-08-08T14:02:42;20.30;99.90
35523;DHT22;61478;50.820;4.330;2023-08-08T14:05:08;20.50;99.90
35523;DHT22;61478;50.820;4.330;2023-08-08T14:07:34;20.50;99.90
35523;DHT22;61478;50.820;4.330;2023-08-08T14:10:01;20.40;99.90
35523;DHT22;61478;50.820;4.330;2023-08-08T14:12:27;20.20;99.90
35523;DHT22;61478;50.820;4.330;2023-08-08T14:14:53;20.30;99.90
35523;DHT22;61478;50.820;4.330;2023-08-08T14:17:18;20.20;99.90
35523;DHT22;61478;50.820;4.330;2023-08-08T14:19:44;20.10;99.90
35523;DHT22;61478;50.820;4.330;2023-08-08T14:22:10;20.10;99.90
35523;DHT22;61478;50.820;4.330;2023-08-08T14:24:37;20.00;99.90
35523;DHT22;61478;50.820;4.330;2023-08-08T14:27:02;20.00;99.90
35523;DHT22;61478;50.820;4.330;2023-08-08T14:29:28;20.00;99.90
35523;DHT22;61478;50.820;4.330;2023-08-08T14:31:54;20.00;99.90
35523;DHT22;61478;50.820;4.330;2023-08-08T14:34:31;19.90;99.90
35523;DHT22;61478;50.820;4.330;2023-08-08T14:36:58;19.90;99.90
35523;DHT22;61478;50.820;4.330;2023-08-08T14:39:24;19.80;99.90
35523;DHT22;61478;50.820;4.330;2023-08-08T14:41:51;19.80;99.90
35523;DHT22;61478;50.820;4.330;2023-08-08T14:44:17;19.70;99.90
35523;DHT22;61478;50.820;4.330;2023-08-08T14:46:43;19.70;99.90
35523;DHT22;61478;50.820;4.330;2023-08-08T14:49:08;19.70;99.90
35523;DHT22;61478;50.820;4.330;2023-08-08T14:51:34;19.60;99.90
35523;DHT22;61478;50.820;4.330;2023-08-08T14:54:01;19.60;99.90
35523;DHT22;61478;50.820;4.330;2023-08-08T14:56:27;19.70;99.90
35523;DHT22;61478;50.820;4.330;2023-08-08T14:58:53;19.70;99.90
35523;DHT22;61478;50.820;4.330;2023-08-08T15:01:19;19.70;99.90
35523;DHT22;61478;50.820;4.330;2023-08-08T15:03:45;19.70;99.90
35523;DHT22;61478;50.820;4.330;2023-08-08T15:06:11;19.70;99.90
35523;DHT22;61478;50.820;4.330;2023-08-08T15:08:37;19.70;99.90
35523;DHT22;61478;50.820;4.330;2023-08-08T15:11:03;19.70;99.90
35523;DHT22;61478;50.820;4.330;2023-08-08T15:13:32;19.70;99.90
35523;DHT22;61478;50.820;4.330;2023-08-08T15:15:58;19.80;99.90
35523;DHT22;61478;50.820;4.330;2023-08-08T15:18:24;19.80;99.90
35523;DHT22;61478;50.820;4.330;2023-08-08T15:20:50;19.80;99.90
35523;DHT22;61478;50.820;4.330;2023-08-08T15:23:16;19.70;99.90
35523;DHT22;61478;50.820;4.330;2023-08-08T15:25:41;19.60;99.90
35523;DHT22;61478;50.820;4.330;2023-08-08T15:28:08;19.60;99.90